Accueil
METAR-TAF:

METAR-TAF

Aéroports :

Tunis, Tunisie

Aéroport international de Tunis-Carthage

latitude: 36-50N, longitude: 010-14E, altitude: 3 m

Observation

Le bulletin a été fait il y a 35 minutes, à 02:30 UTC
Vent calme
Température 23°C
Humidité 78%
Pression 1017 hPa
Visibilité 10 km ou plus
pas de nuages en-dessous de 1500 mètres et pas de cumulonimbus.

METAR: DTTA 240230Z 00000KT CAVOK 23/19 Q1017 NOSIG

Heure: 04:05 (03:05 UTC)

Prévision

Le bulletin a été fait il y a 4 heures et 5 minutes, à 23:00 UTC
Prévision valable du 24 à 00 UTC au 24 à 24 UTC
Vent 4 kt de nord-est
Visibilité 10 km ou plus
pas de nuages en-dessous de 1500 mètres et pas de cumulonimbus.
Evoluant progressivement
du 24 à 08 UTC au 24 à 10 UTC
Vent 6 kt de est
Evoluant progressivement
du 24 à 18 UTC au 24 à 20 UTC
Vent 8 kt de sud/sud-est

TAF: DTTA 232300Z 2400/2424 04004KT CAVOK BECMG 2408/2410 10006KT BECMG 2418/2420 16008KT

Observations et prévisions météorologiques de plus de 4000 aéroports (messages METAR et TAF).

Les stations disponibles sont représentées par des disques jaunes et rouges sur la carte.

Passer la souris dessus pour voir le nom de la station.

Cliquer dessus pour voir les observations et prévisions météorologiques.

Pour changer de carte: cliquez sur les boutons verts avec une croix noire pour zoomer, sur le bouton vert avec un tiret pour effectuer un zoom arrière, ou sur les flèches vertes pour les cartes adjacentes.


METAR-TAF: